KPBG

Plattsburgh International Airport

Plattsburgh, New York, USA
METAR KPBG 162153Z AUTO 00000KT 10SM BKN110 01/M02 A3001 RMK AO2 SLP167 T00061017
Observed Flight Rules
Dec-16 @ 21:53 UTC (9 minutes ago) Visual Flight Rules
Visibility Clouds
10 miles
  • Broken at 11,000' AGL
Temperatures Readings
Current 1°C / 34°F
Dewpoint -2°C / 28°F
Humidity 81%
Altimeter 30.01" Hg
Pressure 1016.7 hPa
Elevation 72
METAR KPBG 162153Z AUTO 00000KT 10SM BKN110 01/M02 A3001 RMK AO2 SLP167 T00061017
Observed Flight Rules
Dec-16 @ 21:53 UTC
(9 minutes ago)
VFR
Clouds
  • Broken at 11,000' AGL
Temperature Dewpoint
1°C / 34°F -2°C / 28°F
Humidity Altimeter Pressure
81% 30.01" Hg 1016.7 hPa